sensor_id;sensor_type;location;lat;lon;timestamp;P1;durP1;ratioP1;P2;durP2;ratioP2
25758;SDS011;13604;52.496;13.456;2024-02-23T00:01:27;1.10;;;1.00;;
25758;SDS011;13604;52.496;13.456;2024-02-23T00:03:53;1.08;;;0.98;;
25758;SDS011;13604;52.496;13.456;2024-02-23T00:06:20;2.55;;;0.90;;
25758;SDS011;13604;52.496;13.456;2024-02-23T00:08:45;1.60;;;1.20;;
25758;SDS011;13604;52.496;13.456;2024-02-23T00:11:10;1.30;;;0.98;;
25758;SDS011;13604;52.496;13.456;2024-02-23T00:13:36;1.05;;;0.95;;
25758;SDS011;13604;52.496;13.456;2024-02-23T00:16:01;1.10;;;1.00;;
25758;SDS011;13604;52.496;13.456;2024-02-23T00:18:26;1.10;;;1.00;;
25758;SDS011;13604;52.496;13.456;2024-02-23T00:20:51;2.72;;;1.20;;
25758;SDS011;13604;52.496;13.456;2024-02-23T00:23:17;0.80;;;0.80;;
25758;SDS011;13604;52.496;13.456;2024-02-23T00:25:44;1.25;;;0.98;;
25758;SDS011;13604;52.496;13.456;2024-02-23T00:28:09;3.83;;;1.10;;
25758;SDS011;13604;52.496;13.456;2024-02-23T00:30:34;2.15;;;0.90;;
25758;SDS011;13604;52.496;13.456;2024-02-23T00:33:00;1.85;;;0.90;;
25758;SDS011;13604;52.496;13.456;2024-02-23T00:35:26;0.98;;;0.90;;
25758;SDS011;13604;52.496;13.456;2024-02-23T00:37:51;0.77;;;0.77;;
25758;SDS011;13604;52.496;13.456;2024-02-23T00:40:17;1.10;;;0.98;;
25758;SDS011;13604;52.496;13.456;2024-02-23T00:42:42;1.02;;;0.95;;
25758;SDS011;13604;52.496;13.456;2024-02-23T00:45:07;1.10;;;0.82;;
25758;SDS011;13604;52.496;13.456;2024-02-23T00:47:33;1.98;;;1.10;;
25758;SDS011;13604;52.496;13.456;2024-02-23T00:50:00;0.80;;;0.80;;
25758;SDS011;13604;52.496;13.456;2024-02-23T00:52:26;1.80;;;0.80;;
25758;SDS011;13604;52.496;13.456;2024-02-23T00:54:51;1.15;;;1.00;;
25758;SDS011;13604;52.496;13.456;2024-02-23T00:57:16;1.00;;;0.90;;
25758;SDS011;13604;52.496;13.456;2024-02-23T00:59:44;1.27;;;1.17;;
25758;SDS011;13604;52.496;13.456;2024-02-23T01:02:09;1.20;;;0.90;;
25758;SDS011;13604;52.496;13.456;2024-02-23T01:04:34;1.33;;;1.00;;
25758;SDS011;13604;52.496;13.456;2024-02-23T01:06:59;3.40;;;1.15;;
25758;SDS011;13604;52.496;13.456;2024-02-23T01:09:25;1.30;;;1.20;;
25758;SDS011;13604;52.496;13.456;2024-02-23T01:11:50;2.15;;;1.13;;
25758;SDS011;13604;52.496;13.456;2024-02-23T01:14:16;2.88;;;0.90;;
25758;SDS011;13604;52.496;13.456;2024-02-23T01:16:41;1.23;;;1.13;;
25758;SDS011;13604;52.496;13.456;2024-02-23T01:19:06;1.63;;;1.20;;
25758;SDS011;13604;52.496;13.456;2024-02-23T01:21:32;1.45;;;0.90;;
25758;SDS011;13604;52.496;13.456;2024-02-23T01:23:57;2.33;;;0.95;;
25758;SDS011;13604;52.496;13.456;2024-02-23T01:26:23;1.17;;;1.08;;
25758;SDS011;13604;52.496;13.456;2024-02-23T01:28:48;1.02;;;1.02;;
25758;SDS011;13604;52.496;13.456;2024-02-23T01:31:14;1.63;;;1.10;;
25758;SDS011;13604;52.496;13.456;2024-02-23T01:33:39;1.75;;;1.58;;
25758;SDS011;13604;52.496;13.456;2024-02-23T01:36:05;2.00;;;1.25;;
25758;SDS011;13604;52.496;13.456;2024-02-23T01:38:30;1.85;;;1.15;;
25758;SDS011;13604;52.496;13.456;2024-02-23T01:40:57;1.30;;;1.20;;
25758;SDS011;13604;52.496;13.456;2024-02-23T01:43:23;1.25;;;1.13;;
25758;SDS011;13604;52.496;13.456;2024-02-23T01:45:48;1.85;;;1.40;;
25758;SDS011;13604;52.496;13.456;2024-02-23T01:48:13;2.15;;;1.27;;
25758;SDS011;13604;52.496;13.456;2024-02-23T01:50:39;3.25;;;1.30;;
25758;SDS011;13604;52.496;13.456;2024-02-23T01:53:05;3.80;;;1.20;;
25758;SDS011;13604;52.496;13.456;2024-02-23T01:55:30;4.47;;;1.00;;
25758;SDS011;13604;52.496;13.456;2024-02-23T01:57:57;1.15;;;1.02;;
25758;SDS011;13604;52.496;13.456;2024-02-23T02:00:22;2.30;;;1.17;;
25758;SDS011;13604;52.496;13.456;2024-02-23T02:02:48;0.88;;;0.88;;
25758;SDS011;13604;52.496;13.456;2024-02-23T02:05:14;2.13;;;1.00;;
25758;SDS011;13604;52.496;13.456;2024-02-23T02:07:40;1.13;;;1.00;;
25758;SDS011;13604;52.496;13.456;2024-02-23T02:10:06;1.60;;;0.82;;
25758;SDS011;13604;52.496;13.456;2024-02-23T02:12:34;1.73;;;0.80;;
25758;SDS011;13604;52.496;13.456;2024-02-23T02:14:59;3.67;;;0.90;;
25758;SDS011;13604;52.496;13.456;2024-02-23T02:17:26;2.50;;;0.63;;
25758;SDS011;13604;52.496;13.456;2024-02-23T02:19:53;1.63;;;0.75;;
25758;SDS011;13604;52.496;13.456;2024-02-23T02:22:19;1.00;;;0.60;;
25758;SDS011;13604;52.496;13.456;2024-02-23T02:24:44;2.17;;;1.00;;
25758;SDS011;13604;52.496;13.456;2024-02-23T02:27:13;0.82;;;0.63;;
25758;SDS011;13604;52.496;13.456;2024-02-23T02:29:39;0.63;;;0.63;;
25758;SDS011;13604;52.496;13.456;2024-02-23T02:32:04;1.60;;;0.60;;
25758;SDS011;13604;52.496;13.456;2024-02-23T02:34:30;1.17;;;0.65;;
25758;SDS011;13604;52.496;13.456;2024-02-23T02:36:55;3.28;;;0.50;;
25758;SDS011;13604;52.496;13.456;2024-02-23T02:39:20;0.80;;;0.50;;
25758;SDS011;13604;52.496;13.456;2024-02-23T02:41:47;0.85;;;0.50;;
25758;SDS011;13604;52.496;13.456;2024-02-23T02:44:13;0.98;;;0.63;;
25758;SDS011;13604;52.496;13.456;2024-02-23T02:46:39;3.05;;;0.40;;
25758;SDS011;13604;52.496;13.456;2024-02-23T02:49:04;1.75;;;0.40;;
25758;SDS011;13604;52.496;13.456;2024-02-23T02:51:29;0.88;;;0.47;;
25758;SDS011;13604;52.496;13.456;2024-02-23T02:53:55;2.80;;;0.60;;
25758;SDS011;13604;52.496;13.456;2024-02-23T02:56:20;1.27;;;0.50;;
25758;SDS011;13604;52.496;13.456;2024-02-23T02:58:45;2.35;;;0.60;;
25758;SDS011;13604;52.496;13.456;2024-02-23T03:01:11;1.75;;;0.50;;
25758;SDS011;13604;52.496;13.456;2024-02-23T03:03:36;1.45;;;0.40;;
25758;SDS011;13604;52.496;13.456;2024-02-23T03:06:02;2.45;;;0.40;;
25758;SDS011;13604;52.496;13.456;2024-02-23T03:08:28;0.40;;;0.40;;
25758;SDS011;13604;52.496;13.456;2024-02-23T03:10:53;0.95;;;0.25;;
25758;SDS011;13604;52.496;13.456;2024-02-23T03:13:18;1.95;;;0.50;;
25758;SDS011;13604;52.496;13.456;2024-02-23T03:15:44;1.65;;;0.50;;
25758;SDS011;13604;52.496;13.456;2024-02-23T03:18:09;2.47;;;0.50;;
25758;SDS011;13604;52.496;13.456;2024-02-23T03:20:35;0.77;;;0.40;;
25758;SDS011;13604;52.496;13.456;2024-02-23T03:23:00;3.35;;;0.70;;
25758;SDS011;13604;52.496;13.456;2024-02-23T03:25:28;1.90;;;0.60;;
25758;SDS011;13604;52.496;13.456;2024-02-23T03:27:53;0.82;;;0.50;;
25758;SDS011;13604;52.496;13.456;2024-02-23T03:30:19;3.13;;;0.63;;
25758;SDS011;13604;52.496;13.456;2024-02-23T03:32:44;0.50;;;0.40;;
25758;SDS011;13604;52.496;13.456;2024-02-23T03:35:11;2.10;;;0.50;;
25758;SDS011;13604;52.496;13.456;2024-02-23T03:37:37;3.60;;;0.52;;
25758;SDS011;13604;52.496;13.456;2024-02-23T03:40:02;1.65;;;0.60;;
25758;SDS011;13604;52.496;13.456;2024-02-23T03:42:29;2.95;;;0.55;;
25758;SDS011;13604;52.496;13.456;2024-02-23T03:44:55;0.60;;;0.43;;
25758;SDS011;13604;52.496;13.456;2024-02-23T03:47:20;1.25;;;0.28;;
25758;SDS011;13604;52.496;13.456;2024-02-23T03:49:45;1.83;;;0.38;;
25758;SDS011;13604;52.496;13.456;2024-02-23T03:52:11;1.60;;;0.40;;
25758;SDS011;13604;52.496;13.456;2024-02-23T03:54:37;2.75;;;0.30;;
25758;SDS011;13604;52.496;13.456;2024-02-23T03:57:02;0.85;;;0.45;;
25758;SDS011;13604;52.496;13.456;2024-02-23T03:59:28;1.75;;;0.70;;
25758;SDS011;13604;52.496;13.456;2024-02-23T04:01:53;2.53;;;0.40;;
25758;SDS011;13604;52.496;13.456;2024-02-23T04:04:19;2.70;;;0.50;;
25758;SDS011;13604;52.496;13.456;2024-02-23T04:06:44;0.88;;;0.57;;
25758;SDS011;13604;52.496;13.456;2024-02-23T04:09:09;1.45;;;0.45;;
25758;SDS011;13604;52.496;13.456;2024-02-23T04:11:35;3.42;;;0.73;;
25758;SDS011;13604;52.496;13.456;2024-02-23T04:14:00;0.50;;;0.50;;
25758;SDS011;13604;52.496;13.456;2024-02-23T04:16:26;1.95;;;0.43;;
25758;SDS011;13604;52.496;13.456;2024-02-23T04:18:52;1.65;;;0.50;;
25758;SDS011;13604;52.496;13.456;2024-02-23T04:21:18;2.30;;;0.50;;
25758;SDS011;13604;52.496;13.456;2024-02-23T04:23:44;2.40;;;0.90;;
25758;SDS011;13604;52.496;13.456;2024-02-23T04:26:09;2.05;;;0.50;;
25758;SDS011;13604;52.496;13.456;2024-02-23T04:28:37;2.50;;;0.77;;
25758;SDS011;13604;52.496;13.456;2024-02-23T04:31:03;2.78;;;0.60;;
25758;SDS011;13604;52.496;13.456;2024-02-23T04:33:28;2.47;;;0.57;;
25758;SDS011;13604;52.496;13.456;2024-02-23T04:35:53;3.95;;;0.80;;
25758;SDS011;13604;52.496;13.456;2024-02-23T04:38:19;1.98;;;0.73;;
25758;SDS011;13604;52.496;13.456;2024-02-23T04:40:44;1.98;;;0.60;;
25758;SDS011;13604;52.496;13.456;2024-02-23T04:43:10;1.38;;;0.40;;
25758;SDS011;13604;52.496;13.456;2024-02-23T04:45:35;2.47;;;0.55;;
25758;SDS011;13604;52.496;13.456;2024-02-23T04:48:01;1.20;;;0.60;;
25758;SDS011;13604;52.496;13.456;2024-02-23T04:50:28;3.28;;;0.60;;
25758;SDS011;13604;52.496;13.456;2024-02-23T04:52:54;2.47;;;0.63;;
25758;SDS011;13604;52.496;13.456;2024-02-23T04:55:19;2.22;;;0.52;;
25758;SDS011;13604;52.496;13.456;2024-02-23T04:57:44;0.32;;;0.32;;
25758;SDS011;13604;52.496;13.456;2024-02-23T05:00:10;0.80;;;0.35;;
25758;SDS011;13604;52.496;13.456;2024-02-23T05:02:35;2.83;;;0.60;;
25758;SDS011;13604;52.496;13.456;2024-02-23T05:05:02;0.63;;;0.40;;
25758;SDS011;13604;52.496;13.456;2024-02-23T05:07:29;1.25;;;0.38;;
25758;SDS011;13604;52.496;13.456;2024-02-23T05:09:57;3.47;;;0.60;;
25758;SDS011;13604;52.496;13.456;2024-02-23T05:12:23;0.63;;;0.50;;
25758;SDS011;13604;52.496;13.456;2024-02-23T05:14:48;5.15;;;0.50;;
25758;SDS011;13604;52.496;13.456;2024-02-23T05:17:13;0.85;;;0.40;;
25758;SDS011;13604;52.496;13.456;2024-02-23T05:19:38;1.42;;;0.65;;
25758;SDS011;13604;52.496;13.456;2024-02-23T05:22:04;1.40;;;0.40;;
25758;SDS011;13604;52.496;13.456;2024-02-23T05:24:29;0.68;;;0.40;;
25758;SDS011;13604;52.496;13.456;2024-02-23T05:26:54;3.35;;;0.60;;
25758;SDS011;13604;52.496;13.456;2024-02-23T05:29:20;0.65;;;0.52;;
25758;SDS011;13604;52.496;13.456;2024-02-23T05:31:51;1.67;;;0.52;;
25758;SDS011;13604;52.496;13.456;2024-02-23T05:34:17;2.63;;;0.35;;
25758;SDS011;13604;52.496;13.456;2024-02-23T05:36:44;0.45;;;0.40;;
25758;SDS011;13604;52.496;13.456;2024-02-23T05:39:10;0.70;;;0.40;;
25758;SDS011;13604;52.496;13.456;2024-02-23T05:41:37;1.20;;;0.40;;
25758;SDS011;13604;52.496;13.456;2024-02-23T05:44:03;0.60;;;0.20;;
25758;SDS011;13604;52.496;13.456;2024-02-23T05:46:30;0.73;;;0.40;;
25758;SDS011;13604;52.496;13.456;2024-02-23T05:48:56;0.30;;;0.30;;
25758;SDS011;13604;52.496;13.456;2024-02-23T05:51:22;0.30;;;0.30;;
25758;SDS011;13604;52.496;13.456;2024-02-23T05:53:47;0.40;;;0.40;;
25758;SDS011;13604;52.496;13.456;2024-02-23T05:56:12;0.77;;;0.40;;
25758;SDS011;13604;52.496;13.456;2024-02-23T05:58:38;0.70;;;0.30;;
25758;SDS011;13604;52.496;13.456;2024-02-23T06:01:03;0.40;;;0.40;;
25758;SDS011;13604;52.496;13.456;2024-02-23T06:03:29;1.00;;;0.30;;
25758;SDS011;13604;52.496;13.456;2024-02-23T06:05:54;0.40;;;0.40;;
25758;SDS011;13604;52.496;13.456;2024-02-23T06:08:19;2.40;;;0.60;;
25758;SDS011;13604;52.496;13.456;2024-02-23T06:10:45;0.50;;;0.40;;
25758;SDS011;13604;52.496;13.456;2024-02-23T06:13:10;0.60;;;0.40;;
25758;SDS011;13604;52.496;13.456;2024-02-23T06:15:35;5.25;;;0.43;;
25758;SDS011;13604;52.496;13.456;2024-02-23T06:18:01;0.32;;;0.30;;
25758;SDS011;13604;52.496;13.456;2024-02-23T06:20:26;1.38;;;0.45;;
25758;SDS011;13604;52.496;13.456;2024-02-23T06:22:51;1.40;;;0.32;;
25758;SDS011;13604;52.496;13.456;2024-02-23T06:25:17;0.35;;;0.35;;
25758;SDS011;13604;52.496;13.456;2024-02-23T06:27:42;0.45;;;0.43;;
25758;SDS011;13604;52.496;13.456;2024-02-23T06:30:07;1.42;;;0.50;;
25758;SDS011;13604;52.496;13.456;2024-02-23T06:32:33;6.55;;;0.50;;
25758;SDS011;13604;52.496;13.456;2024-02-23T06:34:58;0.30;;;0.30;;
25758;SDS011;13604;52.496;13.456;2024-02-23T06:37:24;0.50;;;0.50;;
25758;SDS011;13604;52.496;13.456;2024-02-23T06:39:49;0.25;;;0.25;;
25758;SDS011;13604;52.496;13.456;2024-02-23T06:42:19;1.05;;;0.60;;
25758;SDS011;13604;52.496;13.456;2024-02-23T06:44:45;0.68;;;0.50;;
25758;SDS011;13604;52.496;13.456;2024-02-23T06:47:10;0.60;;;0.60;;
25758;SDS011;13604;52.496;13.456;2024-02-23T06:49:35;0.55;;;0.50;;
25758;SDS011;13604;52.496;13.456;2024-02-23T06:52:01;1.00;;;0.88;;
25758;SDS011;13604;52.496;13.456;2024-02-23T06:54:26;0.70;;;0.50;;
25758;SDS011;13604;52.496;13.456;2024-02-23T06:56:51;3.05;;;0.60;;
25758;SDS011;13604;52.496;13.456;2024-02-23T06:59:17;0.95;;;0.57;;
25758;SDS011;13604;52.496;13.456;2024-02-23T07:01:49;1.20;;;0.60;;
25758;SDS011;13604;52.496;13.456;2024-02-23T07:04:15;0.93;;;0.68;;
25758;SDS011;13604;52.496;13.456;2024-02-23T07:06:40;0.88;;;0.60;;
25758;SDS011;13604;52.496;13.456;2024-02-23T07:09:05;1.40;;;0.75;;
25758;SDS011;13604;52.496;13.456;2024-02-23T07:11:30;0.95;;;0.60;;
25758;SDS011;13604;52.496;13.456;2024-02-23T07:13:56;0.93;;;0.45;;
25758;SDS011;13604;52.496;13.456;2024-02-23T07:16:21;0.40;;;0.40;;
25758;SDS011;13604;52.496;13.456;2024-02-23T07:18:46;0.50;;;0.40;;
25758;SDS011;13604;52.496;13.456;2024-02-23T07:21:12;0.75;;;0.50;;
25758;SDS011;13604;52.496;13.456;2024-02-23T07:23:37;0.43;;;0.43;;
25758;SDS011;13604;52.496;13.456;2024-02-23T07:26:02;3.05;;;0.40;;
25758;SDS011;13604;52.496;13.456;2024-02-23T07:28:28;1.10;;;0.63;;
25758;SDS011;13604;52.496;13.456;2024-02-23T07:30:53;1.88;;;0.88;;
25758;SDS011;13604;52.496;13.456;2024-02-23T07:33:19;2.67;;;0.80;;
25758;SDS011;13604;52.496;13.456;2024-02-23T07:35:44;0.60;;;0.60;;
25758;SDS011;13604;52.496;13.456;2024-02-23T07:38:09;0.73;;;0.73;;
25758;SDS011;13604;52.496;13.456;2024-02-23T07:40:34;0.80;;;0.60;;
25758;SDS011;13604;52.496;13.456;2024-02-23T07:43:00;1.42;;;0.80;;
25758;SDS011;13604;52.496;13.456;2024-02-23T07:45:25;2.47;;;1.00;;
25758;SDS011;13604;52.496;13.456;2024-02-23T07:47:51;1.25;;;0.50;;
25758;SDS011;13604;52.496;13.456;2024-02-23T07:50:16;2.65;;;0.80;;
25758;SDS011;13604;52.496;13.456;2024-02-23T07:52:43;1.17;;;0.70;;
25758;SDS011;13604;52.496;13.456;2024-02-23T07:55:09;1.10;;;0.88;;
25758;SDS011;13604;52.496;13.456;2024-02-23T07:57:34;2.00;;;1.02;;
25758;SDS011;13604;52.496;13.456;2024-02-23T07:59:59;2.30;;;0.95;;
25758;SDS011;13604;52.496;13.456;2024-02-23T08:02:25;1.40;;;0.70;;
25758;SDS011;13604;52.496;13.456;2024-02-23T08:04:50;0.50;;;0.50;;
25758;SDS011;13604;52.496;13.456;2024-02-23T08:07:17;0.65;;;0.50;;
25758;SDS011;13604;52.496;13.456;2024-02-23T08:09:42;3.95;;;1.10;;
25758;SDS011;13604;52.496;13.456;2024-02-23T08:12:07;0.95;;;0.50;;
25758;SDS011;13604;52.496;13.456;2024-02-23T08:14:33;3.13;;;1.05;;
25758;SDS011;13604;52.496;13.456;2024-02-23T08:16:58;1.13;;;0.80;;
25758;SDS011;13604;52.496;13.456;2024-02-23T08:19:24;3.90;;;1.10;;
25758;SDS011;13604;52.496;13.456;2024-02-23T08:21:49;1.23;;;0.77;;
25758;SDS011;13604;52.496;13.456;2024-02-23T08:24:14;1.25;;;0.90;;
25758;SDS011;13604;52.496;13.456;2024-02-23T08:26:40;1.98;;;1.13;;
25758;SDS011;13604;52.496;13.456;2024-02-23T08:29:06;0.88;;;0.57;;
25758;SDS011;13604;52.496;13.456;2024-02-23T08:31:31;3.28;;;1.00;;
25758;SDS011;13604;52.496;13.456;2024-02-23T08:33:56;1.05;;;0.63;;
25758;SDS011;13604;52.496;13.456;2024-02-23T08:36:22;1.75;;;0.85;;
25758;SDS011;13604;52.496;13.456;2024-02-23T08:38:47;2.10;;;0.73;;
25758;SDS011;13604;52.496;13.456;2024-02-23T08:41:12;2.35;;;0.85;;
25758;SDS011;13604;52.496;13.456;2024-02-23T08:43:38;1.23;;;0.50;;
25758;SDS011;13604;52.496;13.456;2024-02-23T08:46:03;1.60;;;1.08;;
25758;SDS011;13604;52.496;13.456;2024-02-23T08:48:29;1.88;;;0.90;;
25758;SDS011;13604;52.496;13.456;2024-02-23T08:50:54;0.82;;;0.57;;
25758;SDS011;13604;52.496;13.456;2024-02-23T08:53:20;2.47;;;0.73;;
25758;SDS011;13604;52.496;13.456;2024-02-23T08:55:45;1.35;;;0.70;;
25758;SDS011;13604;52.496;13.456;2024-02-23T08:58:10;0.82;;;0.80;;
25758;SDS011;13604;52.496;13.456;2024-02-23T09:00:36;1.67;;;1.10;;
25758;SDS011;13604;52.496;13.456;2024-02-23T09:03:04;1.90;;;0.82;;
25758;SDS011;13604;52.496;13.456;2024-02-23T09:05:29;1.98;;;0.80;;
25758;SDS011;13604;52.496;13.456;2024-02-23T09:07:55;1.50;;;0.90;;
25758;SDS011;13604;52.496;13.456;2024-02-23T09:10:20;1.13;;;0.70;;
25758;SDS011;13604;52.496;13.456;2024-02-23T09:12:45;1.30;;;0.73;;
25758;SDS011;13604;52.496;13.456;2024-02-23T09:15:11;1.48;;;0.85;;
25758;SDS011;13604;52.496;13.456;2024-02-23T09:17:36;3.28;;;0.75;;
25758;SDS011;13604;52.496;13.456;2024-02-23T09:20:01;1.95;;;0.70;;
25758;SDS011;13604;52.496;13.456;2024-02-23T09:22:27;3.28;;;1.00;;
25758;SDS011;13604;52.496;13.456;2024-02-23T09:24:52;1.05;;;0.80;;
25758;SDS011;13604;52.496;13.456;2024-02-23T09:27:20;1.52;;;0.80;;
25758;SDS011;13604;52.496;13.456;2024-02-23T09:29:45;2.10;;;0.70;;
25758;SDS011;13604;52.496;13.456;2024-02-23T09:32:11;1.15;;;0.60;;
25758;SDS011;13604;52.496;13.456;2024-02-23T09:34:36;1.33;;;0.55;;
25758;SDS011;13604;52.496;13.456;2024-02-23T09:37:01;1.25;;;0.60;;
25758;SDS011;13604;52.496;13.456;2024-02-23T09:39:27;6.00;;;0.90;;
25758;SDS011;13604;52.496;13.456;2024-02-23T09:41:55;1.80;;;0.70;;
25758;SDS011;13604;52.496;13.456;2024-02-23T09:44:21;2.55;;;0.85;;
25758;SDS011;13604;52.496;13.456;2024-02-23T09:46:47;2.05;;;0.70;;
25758;SDS011;13604;52.496;13.456;2024-02-23T09:49:13;1.20;;;0.63;;
25758;SDS011;13604;52.496;13.456;2024-02-23T09:51:40;1.27;;;0.75;;
25758;SDS011;13604;52.496;13.456;2024-02-23T09:54:06;2.38;;;0.55;;
25758;SDS011;13604;52.496;13.456;2024-02-23T09:56:32;2.38;;;0.90;;
25758;SDS011;13604;52.496;13.456;2024-02-23T09:59:00;1.00;;;0.68;;
25758;SDS011;13604;52.496;13.456;2024-02-23T10:01:28;0.65;;;0.45;;
25758;SDS011;13604;52.496;13.456;2024-02-23T10:03:58;2.10;;;0.75;;
25758;SDS011;13604;52.496;13.456;2024-02-23T10:06:26;4.95;;;1.50;;
25758;SDS011;13604;52.496;13.456;2024-02-23T10:08:52;1.48;;;0.60;;
25758;SDS011;13604;52.496;13.456;2024-02-23T10:11:20;2.35;;;0.98;;
25758;SDS011;13604;52.496;13.456;2024-02-23T10:13:49;2.55;;;0.47;;
25758;SDS011;13604;52.496;13.456;2024-02-23T10:16:15;3.10;;;0.70;;
25758;SDS011;13604;52.496;13.456;2024-02-23T10:18:41;1.58;;;0.70;;
25758;SDS011;13604;52.496;13.456;2024-02-23T10:21:07;1.42;;;1.02;;
25758;SDS011;13604;52.496;13.456;2024-02-23T10:23:32;1.67;;;0.70;;
25758;SDS011;13604;52.496;13.456;2024-02-23T10:25:58;4.10;;;0.90;;
25758;SDS011;13604;52.496;13.456;2024-02-23T10:28:23;2.75;;;0.93;;
25758;SDS011;13604;52.496;13.456;2024-02-23T10:30:48;1.00;;;0.60;;
25758;SDS011;13604;52.496;13.456;2024-02-23T10:33:14;1.10;;;0.57;;
25758;SDS011;13604;52.496;13.456;2024-02-23T10:35:39;2.47;;;0.75;;
25758;SDS011;13604;52.496;13.456;2024-02-23T10:38:07;2.08;;;0.82;;
25758;SDS011;13604;52.496;13.456;2024-02-23T10:40:34;1.30;;;0.63;;
25758;SDS011;13604;52.496;13.456;2024-02-23T10:43:05;2.38;;;0.82;;
25758;SDS011;13604;52.496;13.456;2024-02-23T10:45:38;1.65;;;0.70;;
25758;SDS011;13604;52.496;13.456;2024-02-23T10:48:05;1.15;;;0.73;;
25758;SDS011;13604;52.496;13.456;2024-02-23T10:50:33;3.80;;;0.80;;
25758;SDS011;13604;52.496;13.456;2024-02-23T10:53:00;2.05;;;0.68;;
25758;SDS011;13604;52.496;13.456;2024-02-23T10:55:25;3.25;;;0.70;;
25758;SDS011;13604;52.496;13.456;2024-02-23T10:57:52;0.70;;;0.40;;
25758;SDS011;13604;52.496;13.456;2024-02-23T11:00:19;5.57;;;1.27;;
25758;SDS011;13604;52.496;13.456;2024-02-23T11:02:48;3.95;;;0.85;;
25758;SDS011;13604;52.496;13.456;2024-02-23T11:05:16;6.50;;;0.90;;
25758;SDS011;13604;52.496;13.456;2024-02-23T11:07:45;1.25;;;0.70;;
25758;SDS011;13604;52.496;13.456;2024-02-23T11:10:14;2.05;;;0.60;;
25758;SDS011;13604;52.496;13.456;2024-02-23T11:12:40;1.90;;;0.52;;
25758;SDS011;13604;52.496;13.456;2024-02-23T11:15:05;1.45;;;0.60;;
25758;SDS011;13604;52.496;13.456;2024-02-23T11:17:31;2.13;;;0.90;;
25758;SDS011;13604;52.496;13.456;2024-02-23T11:19:57;2.40;;;0.63;;
25758;SDS011;13604;52.496;13.456;2024-02-23T11:22:27;2.08;;;0.73;;
25758;SDS011;13604;52.496;13.456;2024-02-23T11:24:59;2.80;;;0.60;;
25758;SDS011;13604;52.496;13.456;2024-02-23T11:27:29;3.15;;;0.68;;
25758;SDS011;13604;52.496;13.456;2024-02-23T11:29:59;2.25;;;0.57;;
25758;SDS011;13604;52.496;13.456;2024-02-23T11:32:34;1.33;;;0.70;;
25758;SDS011;13604;52.496;13.456;2024-02-23T11:35:03;2.90;;;0.57;;
25758;SDS011;13604;52.496;13.456;2024-02-23T11:37:30;1.65;;;0.55;;
25758;SDS011;13604;52.496;13.456;2024-02-23T11:39:56;1.25;;;0.57;;
25758;SDS011;13604;52.496;13.456;2024-02-23T11:42:23;2.85;;;0.82;;
25758;SDS011;13604;52.496;13.456;2024-02-23T11:44:49;1.65;;;0.90;;
25758;SDS011;13604;52.496;13.456;2024-02-23T11:47:15;1.80;;;0.68;;
25758;SDS011;13604;52.496;13.456;2024-02-23T11:49:42;2.15;;;0.88;;
25758;SDS011;13604;52.496;13.456;2024-02-23T11:52:07;1.63;;;0.70;;
25758;SDS011;13604;52.496;13.456;2024-02-23T11:54:32;1.58;;;0.63;;
25758;SDS011;13604;52.496;13.456;2024-02-23T11:56:58;3.33;;;0.55;;
25758;SDS011;13604;52.496;13.456;2024-02-23T11:59:24;1.50;;;0.73;;
25758;SDS011;13604;52.496;13.456;2024-02-23T12:01:50;3.10;;;0.95;;
25758;SDS011;13604;52.496;13.456;2024-02-23T12:04:15;1.88;;;0.77;;
25758;SDS011;13604;52.496;13.456;2024-02-23T12:06:41;3.20;;;0.60;;
25758;SDS011;13604;52.496;13.456;2024-02-23T12:09:07;3.58;;;0.75;;
25758;SDS011;13604;52.496;13.456;2024-02-23T12:11:32;3.65;;;1.02;;
25758;SDS011;13604;52.496;13.456;2024-02-23T12:13:58;2.60;;;0.60;;
25758;SDS011;13604;52.496;13.456;2024-02-23T12:16:23;1.77;;;1.00;;
25758;SDS011;13604;52.496;13.456;2024-02-23T12:18:55;2.38;;;0.85;;
25758;SDS011;13604;52.496;13.456;2024-02-23T12:21:20;2.17;;;0.82;;
25758;SDS011;13604;52.496;13.456;2024-02-23T12:23:48;2.38;;;0.80;;
25758;SDS011;13604;52.496;13.456;2024-02-23T12:26:15;2.83;;;0.85;;
25758;SDS011;13604;52.496;13.456;2024-02-23T12:28:42;2.85;;;1.00;;
25758;SDS011;13604;52.496;13.456;2024-02-23T12:31:08;3.20;;;0.60;;
25758;SDS011;13604;52.496;13.456;2024-02-23T12:33:34;1.33;;;0.60;;
25758;SDS011;13604;52.496;13.456;2024-02-23T12:36:03;1.10;;;0.63;;
25758;SDS011;13604;52.496;13.456;2024-02-23T12:38:29;2.47;;;0.77;;
25758;SDS011;13604;52.496;13.456;2024-02-23T12:40:55;1.05;;;0.55;;
25758;SDS011;13604;52.496;13.456;2024-02-23T12:43:20;7.60;;;0.80;;
25758;SDS011;13604;52.496;13.456;2024-02-23T12:45:47;6.47;;;1.08;;
25758;SDS011;13604;52.496;13.456;2024-02-23T12:48:15;2.03;;;0.90;;
25758;SDS011;13604;52.496;13.456;2024-02-23T12:50:41;5.78;;;1.20;;
25758;SDS011;13604;52.496;13.456;2024-02-23T12:53:07;4.30;;;0.70;;
25758;SDS011;13604;52.496;13.456;2024-02-23T12:55:33;1.83;;;0.70;;
25758;SDS011;13604;52.496;13.456;2024-02-23T12:57:59;2.53;;;0.60;;
25758;SDS011;13604;52.496;13.456;2024-02-23T13:00:24;6.55;;;0.77;;
25758;SDS011;13604;52.496;13.456;2024-02-23T13:02:49;2.33;;;0.98;;
25758;SDS011;13604;52.496;13.456;2024-02-23T13:05:15;1.55;;;0.93;;
25758;SDS011;13604;52.496;13.456;2024-02-23T13:07:41;5.43;;;0.93;;
25758;SDS011;13604;52.496;13.456;2024-02-23T13:10:07;2.17;;;1.00;;
25758;SDS011;13604;52.496;13.456;2024-02-23T13:12:32;2.47;;;0.80;;
25758;SDS011;13604;52.496;13.456;2024-02-23T13:14:58;3.67;;;1.10;;
25758;SDS011;13604;52.496;13.456;2024-02-23T13:17:23;5.43;;;1.23;;
25758;SDS011;13604;52.496;13.456;2024-02-23T13:19:48;5.78;;;2.25;;
25758;SDS011;13604;52.496;13.456;2024-02-23T13:22:14;3.95;;;1.02;;
25758;SDS011;13604;52.496;13.456;2024-02-23T13:24:39;2.38;;;1.00;;
25758;SDS011;13604;52.496;13.456;2024-02-23T13:27:05;4.32;;;0.70;;
25758;SDS011;13604;52.496;13.456;2024-02-23T13:29:30;3.88;;;0.90;;
25758;SDS011;13604;52.496;13.456;2024-02-23T13:31:55;4.38;;;0.82;;
25758;SDS011;13604;52.496;13.456;2024-02-23T13:34:21;1.75;;;1.10;;
25758;SDS011;13604;52.496;13.456;2024-02-23T13:36:46;2.88;;;0.63;;
25758;SDS011;13604;52.496;13.456;2024-02-23T13:39:12;2.30;;;1.20;;
25758;SDS011;13604;52.496;13.456;2024-02-23T13:41:38;3.15;;;0.90;;
25758;SDS011;13604;52.496;13.456;2024-02-23T13:44:03;1.80;;;0.90;;
25758;SDS011;13604;52.496;13.456;2024-02-23T13:46:29;3.80;;;0.90;;
25758;SDS011;13604;52.496;13.456;2024-02-23T13:49:05;4.22;;;1.00;;
25758;SDS011;13604;52.496;13.456;2024-02-23T13:51:32;4.03;;;1.10;;
25758;SDS011;13604;52.496;13.456;2024-02-23T13:53:57;1.73;;;0.90;;
25758;SDS011;13604;52.496;13.456;2024-02-23T13:56:23;1.75;;;0.70;;
25758;SDS011;13604;52.496;13.456;2024-02-23T13:58:48;2.97;;;0.93;;
25758;SDS011;13604;52.496;13.456;2024-02-23T14:01:14;1.85;;;0.98;;
25758;SDS011;13604;52.496;13.456;2024-02-23T14:03:39;1.40;;;0.77;;
25758;SDS011;13604;52.496;13.456;2024-02-23T14:06:05;3.30;;;0.98;;
25758;SDS011;13604;52.496;13.456;2024-02-23T14:08:30;4.47;;;0.70;;
25758;SDS011;13604;52.496;13.456;2024-02-23T14:10:58;4.22;;;1.13;;
25758;SDS011;13604;52.496;13.456;2024-02-23T14:13:24;3.45;;;0.80;;
25758;SDS011;13604;52.496;13.456;2024-02-23T14:15:49;2.60;;;0.63;;
25758;SDS011;13604;52.496;13.456;2024-02-23T14:18:14;3.83;;;0.85;;
25758;SDS011;13604;52.496;13.456;2024-02-23T14:20:40;2.20;;;0.80;;
25758;SDS011;13604;52.496;13.456;2024-02-23T14:23:05;1.85;;;0.80;;
25758;SDS011;13604;52.496;13.456;2024-02-23T14:25:30;1.45;;;0.82;;